createdAt,value
2023-03-28T00:01:08.175Z,1.38
2023-03-28T00:03:39.969Z,1.70
2023-03-28T00:06:11.467Z,1.30
2023-03-28T00:08:40.837Z,1.45
2023-03-28T00:11:18.638Z,1.40
2023-03-28T00:13:47.753Z,1.35
2023-03-28T00:16:16.626Z,1.45
2023-03-28T00:18:45.417Z,1.50
2023-03-28T00:21:23.952Z,1.30
2023-03-28T00:23:53.612Z,1.40
2023-03-28T00:26:26.696Z,1.40
2023-03-28T00:28:56.104Z,1.52
2023-03-28T00:31:25.950Z,1.20
2023-03-28T00:33:55.396Z,1.50
2023-03-28T00:36:26.530Z,1.70
2023-03-28T00:38:55.203Z,1.42
2023-03-28T00:41:26.758Z,1.23
2023-03-28T00:43:57.114Z,1.50
2023-03-28T00:46:29.767Z,1.50
2023-03-28T00:49:03.383Z,1.88
2023-03-28T00:51:35.689Z,1.40
2023-03-28T00:54:08.558Z,1.33
2023-03-28T00:56:39.159Z,1.50
2023-03-28T00:59:13.106Z,1.48
2023-03-28T01:04:10.713Z,1.50
2023-03-28T01:06:46.376Z,1.48
2023-03-28T01:09:19.893Z,1.50
2023-03-28T01:11:54.962Z,1.35
2023-03-28T01:14:27.433Z,1.50
2023-03-28T01:16:57.787Z,1.40
2023-03-28T01:19:39.808Z,1.50
2023-03-28T01:22:32.550Z,1.42
2023-03-28T01:25:47.548Z,1.50
2023-03-28T01:28:33.722Z,1.60
2023-03-28T01:31:30.422Z,1.60
2023-03-28T01:34:57.365Z,1.50
2023-03-28T01:37:40.128Z,1.58
2023-03-28T01:40:23.599Z,1.50
2023-03-28T01:43:11.135Z,1.50
2023-03-28T01:45:48.183Z,1.75
2023-03-28T01:48:28.000Z,1.70
2023-03-28T01:51:00.296Z,1.52
2023-03-28T01:53:33.765Z,1.30
2023-03-28T01:56:09.825Z,1.40
2023-03-28T01:58:46.506Z,1.30
2023-03-28T02:01:25.280Z,1.30
2023-03-28T02:04:02.359Z,1.40
2023-03-28T02:06:42.446Z,1.42
2023-03-28T02:09:24.795Z,1.48
2023-03-28T02:12:21.530Z,1.30
2023-03-28T02:15:05.129Z,1.27
2023-03-28T02:18:03.470Z,1.20
2023-03-28T02:21:00.476Z,1.42
2023-03-28T02:23:51.636Z,1.40
2023-03-28T02:26:40.956Z,1.40
2023-03-28T02:29:16.880Z,1.38
2023-03-28T02:31:53.460Z,1.50
2023-03-28T02:34:21.929Z,1.40
2023-03-28T02:36:57.663Z,1.50
2023-03-28T02:39:42.918Z,1.70
2023-03-28T02:42:30.280Z,1.30
2023-03-28T02:45:16.165Z,1.30
2023-03-28T02:47:56.768Z,1.20
2023-03-28T02:50:35.757Z,1.67
2023-03-28T02:53:10.888Z,1.38
2023-03-28T02:55:45.508Z,1.73
2023-03-28T02:58:30.322Z,1.67
2023-03-28T03:00:58.870Z,1.38
2023-03-28T03:03:27.478Z,1.42
2023-03-28T03:05:58.367Z,1.50
2023-03-28T03:08:27.822Z,1.60
2023-03-28T03:10:57.697Z,1.30
2023-03-28T03:13:27.711Z,1.40
2023-03-28T03:15:56.346Z,1.33
2023-03-28T03:18:26.164Z,1.63
2023-03-28T03:20:55.537Z,1.42
2023-03-28T03:23:24.010Z,1.30
2023-03-28T03:25:56.162Z,1.50
2023-03-28T03:28:32.228Z,1.60
2023-03-28T03:31:03.196Z,1.40
2023-03-28T03:33:54.443Z,1.55
2023-03-28T03:36:30.363Z,1.50
2023-03-28T03:39:01.068Z,1.60
2023-03-28T03:41:29.618Z,1.60
2023-03-28T03:43:59.408Z,1.60
2023-03-28T03:46:27.918Z,1.50
2023-03-28T03:48:56.340Z,1.30
2023-03-28T03:51:24.833Z,1.50
2023-03-28T03:53:58.238Z,1.30
2023-03-28T03:56:35.115Z,1.40
2023-03-28T03:59:05.043Z,1.50
2023-03-28T04:01:39.354Z,1.50
2023-03-28T04:04:33.729Z,1.42
2023-03-28T04:07:22.430Z,1.40
2023-03-28T04:09:53.714Z,1.42
2023-03-28T04:12:22.572Z,1.52
2023-03-28T04:14:54.355Z,1.40
2023-03-28T04:17:37.883Z,1.48
2023-03-28T04:20:14.092Z,1.40
2023-03-28T04:23:01.311Z,1.70
2023-03-28T04:25:34.044Z,1.50
2023-03-28T04:28:09.375Z,1.40
2023-03-28T04:30:45.378Z,1.40
2023-03-28T04:33:33.866Z,1.70
2023-03-28T04:36:04.645Z,1.65
2023-03-28T04:38:36.618Z,1.42
2023-03-28T04:41:37.006Z,1.63
2023-03-28T04:44:44.269Z,1.35
2023-03-28T04:47:15.261Z,1.40
2023-03-28T04:49:43.710Z,1.63
2023-03-28T04:52:12.835Z,1.60
2023-03-28T04:54:44.534Z,1.70
2023-03-28T04:57:17.339Z,1.45
2023-03-28T04:59:48.875Z,1.70
2023-03-28T05:02:27.417Z,1.30
2023-03-28T05:05:03.976Z,1.38
2023-03-28T05:07:32.595Z,1.35
2023-03-28T05:10:02.474Z,1.50
2023-03-28T05:12:37.129Z,1.63
2023-03-28T05:15:07.355Z,1.48
2023-03-28T05:17:48.620Z,1.65
2023-03-28T05:20:22.523Z,1.90
2023-03-28T05:22:55.259Z,1.70
2023-03-28T05:25:23.946Z,1.90
2023-03-28T05:27:52.849Z,1.77
2023-03-28T05:30:21.868Z,1.60
2023-03-28T05:32:55.349Z,1.70
2023-03-28T05:35:23.967Z,3.15
2023-03-28T05:37:53.192Z,3.40
2023-03-28T05:40:22.045Z,4.15
2023-03-28T05:42:51.865Z,4.22
2023-03-28T05:45:22.809Z,3.15
2023-03-28T05:47:52.516Z,3.53
2023-03-28T05:50:23.604Z,3.60
2023-03-28T05:52:52.984Z,4.60
2023-03-28T05:55:21.405Z,3.90
2023-03-28T05:57:50.044Z,2.92
2023-03-28T06:00:21.381Z,2.97
2023-03-28T06:02:54.911Z,3.20
2023-03-28T06:05:34.491Z,2.78
2023-03-28T06:08:05.272Z,3.33
2023-03-28T06:10:34.721Z,3.13
2023-03-28T06:13:19.486Z,2.55
2023-03-28T06:15:49.359Z,2.35
2023-03-28T06:18:19.678Z,2.50
2023-03-28T06:20:52.305Z,2.30
2023-03-28T06:23:20.889Z,2.00
2023-03-28T06:25:49.415Z,2.38
2023-03-28T06:28:20.019Z,2.67
2023-03-28T06:31:16.260Z,2.45
2023-03-28T06:33:45.507Z,2.22
2023-03-28T06:36:16.376Z,2.20
2023-03-28T06:38:45.865Z,2.10
2023-03-28T06:41:14.594Z,2.10
2023-03-28T06:43:43.567Z,1.95
2023-03-28T06:46:31.914Z,2.00
2023-03-28T06:49:01.228Z,2.00
2023-03-28T06:51:31.057Z,2.10
2023-03-28T06:53:59.470Z,1.90
2023-03-28T06:56:31.101Z,2.35
2023-03-28T06:59:00.707Z,1.92
2023-03-28T07:01:32.835Z,2.00
2023-03-28T07:04:11.204Z,1.75
2023-03-28T07:06:43.344Z,1.80
2023-03-28T07:09:11.759Z,2.00
2023-03-28T07:11:44.577Z,1.90
2023-03-28T07:14:13.758Z,2.03
2023-03-28T07:16:42.530Z,2.00
2023-03-28T07:19:12.334Z,2.10
2023-03-28T07:21:45.446Z,2.10
2023-03-28T07:24:13.841Z,2.45
2023-03-28T07:27:14.961Z,2.97
2023-03-28T07:29:45.058Z,3.50
2023-03-28T07:32:13.531Z,2.67
2023-03-28T07:34:44.884Z,2.72
2023-03-28T07:37:21.074Z,2.70
2023-03-28T07:40:17.584Z,3.45
2023-03-28T07:42:48.954Z,2.88
2023-03-28T07:45:18.313Z,2.85
2023-03-28T07:47:47.055Z,3.53
2023-03-28T07:50:15.797Z,4.05
2023-03-28T07:52:47.361Z,3.17
2023-03-28T07:55:16.100Z,3.20
2023-03-28T07:57:48.904Z,3.53
2023-03-28T08:00:27.558Z,3.17
2023-03-28T08:05:52.625Z,3.28
2023-03-28T08:08:24.356Z,3.20
2023-03-28T08:11:06.617Z,4.00
2023-03-28T08:13:35.331Z,4.10
2023-03-28T08:16:10.587Z,2.90
2023-03-28T08:18:38.952Z,3.65
2023-03-28T08:21:08.102Z,3.50
2023-03-28T08:23:38.047Z,3.60
2023-03-28T08:26:28.208Z,3.60
2023-03-28T08:28:59.601Z,4.15
2023-03-28T08:31:30.388Z,4.00
2023-03-28T08:34:05.339Z,3.45
2023-03-28T08:36:38.220Z,3.38
2023-03-28T08:39:10.041Z,3.70
2023-03-28T08:41:57.015Z,3.50
2023-03-28T08:44:40.938Z,3.35
2023-03-28T08:47:15.590Z,3.47
2023-03-28T08:49:47.500Z,3.67
2023-03-28T08:52:20.200Z,3.70
2023-03-28T08:54:54.512Z,3.38
2023-03-28T08:57:29.362Z,2.80
2023-03-28T09:02:37.553Z,3.90
2023-03-28T09:05:21.851Z,4.28
2023-03-28T09:08:01.152Z,3.78
2023-03-28T09:10:40.539Z,3.67
2023-03-28T09:13:27.115Z,3.63
2023-03-28T09:16:07.042Z,3.40
2023-03-28T09:18:54.811Z,3.40
2023-03-28T09:21:31.062Z,3.25
2023-03-28T09:24:15.336Z,2.88
2023-03-28T09:27:16.148Z,3.30
2023-03-28T09:29:45.816Z,3.38
2023-03-28T09:32:21.821Z,3.10
2023-03-28T09:34:52.416Z,3.25
2023-03-28T09:37:41.814Z,2.58
2023-03-28T09:40:23.352Z,3.10
2023-03-28T09:43:17.133Z,2.55
2023-03-28T09:46:02.914Z,2.60
2023-03-28T09:48:50.049Z,2.70
2023-03-28T09:51:21.957Z,2.70
2023-03-28T09:53:50.540Z,2.90
2023-03-28T09:56:27.480Z,2.40
2023-03-28T09:59:01.835Z,2.97
2023-03-28T10:01:43.684Z,2.65
2023-03-28T10:04:40.608Z,2.70
2023-03-28T10:07:34.002Z,2.78
2023-03-28T10:10:20.625Z,2.85
2023-03-28T10:12:58.187Z,2.42
2023-03-28T10:15:35.638Z,2.58
2023-03-28T10:18:19.243Z,2.42
2023-03-28T10:20:53.116Z,1.92
2023-03-28T10:23:23.978Z,2.13
2023-03-28T10:25:56.281Z,1.92
2023-03-28T10:28:31.166Z,1.70
2023-03-28T10:31:02.779Z,1.48
2023-03-28T10:33:37.140Z,1.38
2023-03-28T10:36:31.549Z,1.98
2023-03-28T10:39:21.584Z,1.60
2023-03-28T10:42:08.863Z,1.40
2023-03-28T10:45:04.628Z,1.27
2023-03-28T10:47:38.662Z,1.20
2023-03-28T10:50:22.635Z,1.60
2023-03-28T10:53:01.203Z,1.10
2023-03-28T10:55:40.491Z,1.00
2023-03-28T10:58:34.302Z,1.17
2023-03-28T11:01:13.921Z,1.00
2023-03-28T11:04:08.482Z,1.10
2023-03-28T11:06:45.471Z,1.30
2023-03-28T11:09:25.072Z,1.05
2023-03-28T11:12:33.902Z,1.10
2023-03-28T11:15:11.987Z,1.15
2023-03-28T11:17:57.793Z,1.20
2023-03-28T11:20:42.911Z,1.20
2023-03-28T11:23:25.732Z,1.30
2023-03-28T11:26:18.099Z,1.02
2023-03-28T11:29:25.860Z,1.08
2023-03-28T11:32:06.412Z,0.95
2023-03-28T11:34:42.622Z,1.10
2023-03-28T11:37:18.607Z,1.08
2023-03-28T11:39:53.101Z,1.20
2023-03-28T11:42:37.059Z,1.08
2023-03-28T11:45:15.827Z,1.10
2023-03-28T11:47:50.918Z,1.25
2023-03-28T11:50:24.782Z,1.10
2023-03-28T11:53:08.452Z,1.10
2023-03-28T11:55:49.743Z,1.10
2023-03-28T11:58:39.818Z,1.08
2023-03-28T12:01:14.641Z,1.10
2023-03-28T12:03:58.071Z,0.95
2023-03-28T12:06:33.867Z,1.20
2023-03-28T12:09:12.643Z,1.20
2023-03-28T12:11:46.689Z,1.05
2023-03-28T12:14:30.921Z,1.10
2023-03-28T12:17:16.883Z,0.90
2023-03-28T12:19:48.474Z,1.00
2023-03-28T12:22:26.625Z,1.20
2023-03-28T12:25:07.872Z,1.10
2023-03-28T12:27:50.800Z,1.20
2023-03-28T12:30:32.375Z,1.13
2023-03-28T12:33:13.133Z,1.38
2023-03-28T12:35:55.312Z,1.15
2023-03-28T12:38:32.251Z,1.10
2023-03-28T12:41:31.707Z,1.10
2023-03-28T12:44:05.322Z,1.00
2023-03-28T12:46:46.201Z,1.15
2023-03-28T12:49:19.559Z,1.10
2023-03-28T12:51:51.543Z,0.98
2023-03-28T12:54:28.301Z,1.20
2023-03-28T12:57:04.107Z,1.00
2023-03-28T13:00:04.720Z,1.10
2023-03-28T13:02:52.625Z,1.20
2023-03-28T13:05:25.801Z,1.23
2023-03-28T13:08:01.589Z,1.20
2023-03-28T13:10:39.450Z,1.30
2023-03-28T13:13:19.558Z,1.10
2023-03-28T13:15:58.800Z,1.20
2023-03-28T13:18:33.849Z,1.20
2023-03-28T13:21:07.258Z,1.02
2023-03-28T13:23:45.754Z,1.13
2023-03-28T13:26:15.006Z,1.02
2023-03-28T13:28:47.788Z,1.38
2023-03-28T13:31:25.523Z,1.10
2023-03-28T13:34:01.397Z,1.10
2023-03-28T13:36:32.674Z,1.20
2023-03-28T13:39:22.314Z,1.30
2023-03-28T13:42:00.237Z,1.10
2023-03-28T13:44:42.828Z,1.27
2023-03-28T13:47:26.672Z,1.17
2023-03-28T13:50:01.885Z,1.35
2023-03-28T13:52:30.284Z,1.23
2023-03-28T13:55:02.638Z,1.50
2023-03-28T13:57:31.611Z,1.20
2023-03-28T14:00:04.928Z,1.15
2023-03-28T14:02:44.562Z,1.33
2023-03-28T14:05:19.506Z,1.48
2023-03-28T14:07:48.052Z,1.40
2023-03-28T14:10:28.751Z,1.40
2023-03-28T14:12:59.523Z,1.33
2023-03-28T14:15:31.902Z,1.70
2023-03-28T14:18:01.938Z,1.60
2023-03-28T14:20:31.004Z,1.40
2023-03-28T14:23:01.585Z,1.52
2023-03-28T14:25:31.212Z,1.40
2023-03-28T14:28:08.465Z,1.70
2023-03-28T14:30:43.156Z,1.50
2023-03-28T14:35:58.330Z,1.30
2023-03-28T14:38:35.244Z,1.30
2023-03-28T14:41:09.627Z,1.50
2023-03-28T14:43:38.021Z,1.60
2023-03-28T14:46:10.979Z,1.52
2023-03-28T14:48:42.469Z,1.50
2023-03-28T14:51:14.240Z,1.40
2023-03-28T14:53:45.798Z,1.40
2023-03-28T14:56:19.231Z,1.25
2023-03-28T14:58:49.947Z,1.70
2023-03-28T15:01:23.177Z,1.40
2023-03-28T15:03:57.659Z,1.33
2023-03-28T15:06:29.077Z,1.50
2023-03-28T15:08:59.518Z,1.27
2023-03-28T15:11:32.483Z,1.35
2023-03-28T15:14:04.666Z,1.33
2023-03-28T15:16:39.452Z,1.40
2023-03-28T15:19:17.885Z,1.25
2023-03-28T15:21:54.344Z,1.30
2023-03-28T15:24:23.353Z,1.50
2023-03-28T15:26:56.885Z,1.40
2023-03-28T15:29:26.462Z,1.25
2023-03-28T15:32:02.650Z,1.20
2023-03-28T15:34:33.201Z,1.45
2023-03-28T15:37:03.467Z,1.52
2023-03-28T15:39:34.617Z,1.40
2023-03-28T15:42:26.533Z,1.30
2023-03-28T15:45:22.102Z,1.27
2023-03-28T15:47:55.420Z,1.10
2023-03-28T15:50:30.307Z,1.20
2023-03-28T15:53:00.941Z,1.25
2023-03-28T15:55:29.574Z,1.20
2023-03-28T15:57:58.657Z,1.13
2023-03-28T16:00:39.501Z,1.40
2023-03-28T16:03:34.474Z,1.20
2023-03-28T16:06:23.222Z,1.20
2023-03-28T16:09:15.715Z,1.30
2023-03-28T16:11:45.441Z,1.25
2023-03-28T16:14:52.785Z,1.40
2023-03-28T16:17:44.693Z,1.45
2023-03-28T16:20:25.324Z,1.50
2023-03-28T16:22:53.851Z,1.20
2023-03-28T16:25:22.244Z,1.30
2023-03-28T16:27:51.402Z,1.20
2023-03-28T16:30:22.447Z,1.30
2023-03-28T16:32:52.007Z,1.35
2023-03-28T16:35:22.773Z,1.55
2023-03-28T16:37:51.811Z,1.30
2023-03-28T16:40:20.255Z,1.40
2023-03-28T16:42:48.800Z,1.20
2023-03-28T16:45:17.518Z,1.13
2023-03-28T16:47:46.016Z,1.25
2023-03-28T16:50:14.609Z,1.20
2023-03-28T16:52:44.410Z,1.25
2023-03-28T16:55:14.601Z,1.40
2023-03-28T16:57:43.614Z,1.20
2023-03-28T17:00:18.123Z,1.30
2023-03-28T17:02:47.080Z,1.13
2023-03-28T17:05:16.142Z,1.38
2023-03-28T17:07:46.179Z,1.40
2023-03-28T17:10:14.656Z,1.13
2023-03-28T17:12:43.317Z,1.40
2023-03-28T17:15:13.061Z,1.40
2023-03-28T17:17:41.662Z,1.10
2023-03-28T17:20:11.663Z,1.40
2023-03-28T17:22:42.482Z,1.20
2023-03-28T17:25:12.411Z,1.27
2023-03-28T17:27:40.778Z,1.10
2023-03-28T17:30:11.717Z,1.33
2023-03-28T17:32:40.327Z,1.30
2023-03-28T17:35:11.348Z,1.25
2023-03-28T17:37:40.003Z,1.20
2023-03-28T17:40:09.529Z,1.05
2023-03-28T17:42:39.412Z,1.00
2023-03-28T17:45:09.468Z,1.10
2023-03-28T17:47:39.391Z,1.30
2023-03-28T17:50:09.139Z,1.30
2023-03-28T17:52:37.740Z,1.33
2023-03-28T17:55:07.304Z,1.05
2023-03-28T17:57:36.312Z,1.20
2023-03-28T18:00:07.779Z,1.10
2023-03-28T18:02:45.962Z,1.15
2023-03-28T18:05:33.791Z,1.20
2023-03-28T18:08:02.683Z,1.30
2023-03-28T18:10:31.634Z,1.27
2023-03-28T18:13:00.709Z,1.55
2023-03-28T18:15:30.751Z,1.33
2023-03-28T18:18:01.696Z,1.50
2023-03-28T18:20:30.264Z,1.20
2023-03-28T18:22:58.696Z,1.35
2023-03-28T18:25:27.724Z,1.50
2023-03-28T18:27:56.298Z,1.80
2023-03-28T18:30:24.866Z,1.55
2023-03-28T18:32:54.805Z,1.40
2023-03-28T18:35:24.615Z,1.60
2023-03-28T18:37:53.107Z,1.70
2023-03-28T18:40:22.086Z,2.10
2023-03-28T18:42:50.950Z,2.38
2023-03-28T18:45:19.372Z,2.40
2023-03-28T18:47:47.874Z,1.67
2023-03-28T18:50:18.010Z,1.70
2023-03-28T18:52:46.507Z,1.80
2023-03-28T18:55:14.993Z,1.70
2023-03-28T18:57:43.453Z,1.80
2023-03-28T19:00:18.515Z,1.60
2023-03-28T19:02:48.829Z,2.00
2023-03-28T19:05:19.541Z,1.92
2023-03-28T19:07:48.489Z,1.92
2023-03-28T19:10:17.086Z,1.80
2023-03-28T19:12:45.718Z,1.92
2023-03-28T19:15:14.261Z,1.90
2023-03-28T19:17:42.924Z,1.77
2023-03-28T19:20:12.746Z,1.85
2023-03-28T19:22:43.038Z,1.73
2023-03-28T19:25:11.723Z,1.60
2023-03-28T19:27:41.276Z,1.70
2023-03-28T19:30:10.283Z,1.90
2023-03-28T19:32:38.833Z,1.90
2023-03-28T19:35:08.394Z,2.17
2023-03-28T19:37:36.893Z,2.00
2023-03-28T19:40:09.492Z,1.70
2023-03-28T19:42:40.399Z,2.03
2023-03-28T19:45:09.480Z,1.90
2023-03-28T19:47:38.066Z,1.63
2023-03-28T19:50:09.871Z,2.50
2023-03-28T19:52:39.573Z,2.15
2023-03-28T19:55:11.090Z,2.10
2023-03-28T19:57:39.609Z,2.13
2023-03-28T20:00:09.904Z,2.10
2023-03-28T20:02:41.324Z,1.85
2023-03-28T20:05:10.853Z,2.42
2023-03-28T20:07:39.305Z,2.10
2023-03-28T20:10:10.233Z,2.10
2023-03-28T20:12:39.831Z,2.10
2023-03-28T20:15:09.826Z,2.00
2023-03-28T20:17:38.429Z,1.80
2023-03-28T20:20:10.241Z,9.07
2023-03-28T20:22:38.739Z,17.85
2023-03-28T20:25:09.660Z,9.20
2023-03-28T20:27:38.440Z,6.07
2023-03-28T20:30:08.232Z,5.90
2023-03-28T20:32:36.684Z,7.88
2023-03-28T20:35:06.240Z,5.70
2023-03-28T20:37:34.756Z,4.65
2023-03-28T20:40:10.587Z,4.57
2023-03-28T20:42:41.143Z,3.78
2023-03-28T20:45:14.094Z,3.22
2023-03-28T20:47:42.897Z,2.95
2023-03-28T20:50:12.745Z,2.80
2023-03-28T20:52:41.172Z,2.42
2023-03-28T20:55:10.478Z,2.17
2023-03-28T20:57:42.341Z,2.50
2023-03-28T21:00:14.564Z,2.05
2023-03-28T21:02:43.527Z,1.98
2023-03-28T21:05:12.469Z,1.88
2023-03-28T21:07:41.173Z,1.70
2023-03-28T21:10:10.601Z,1.80
2023-03-28T21:12:40.621Z,1.77
2023-03-28T21:15:10.729Z,1.80
2023-03-28T21:17:39.705Z,1.60
2023-03-28T21:20:10.934Z,1.90
2023-03-28T21:22:39.549Z,1.70
2023-03-28T21:25:10.470Z,1.50
2023-03-28T21:27:40.501Z,1.60
2023-03-28T21:30:11.751Z,1.55
2023-03-28T21:32:40.258Z,1.52
2023-03-28T21:35:10.315Z,1.40
2023-03-28T21:37:38.787Z,1.40
2023-03-28T21:40:08.696Z,1.40
2023-03-28T21:42:37.117Z,1.58
2023-03-28T21:45:08.065Z,1.45
2023-03-28T21:47:38.141Z,1.48
2023-03-28T21:50:30.530Z,1.60
2023-03-28T21:52:59.066Z,1.50
2023-03-28T21:55:27.713Z,1.85
2023-03-28T21:57:56.111Z,1.60
2023-03-28T22:00:26.041Z,1.63
2023-03-28T22:02:54.727Z,1.70
2023-03-28T22:05:29.661Z,1.98
2023-03-28T22:07:58.528Z,1.65
2023-03-28T22:10:27.447Z,1.80
2023-03-28T22:12:58.910Z,2.00
2023-03-28T22:15:28.965Z,1.90
2023-03-28T22:17:58.244Z,2.20
2023-03-28T22:20:28.977Z,1.63
2023-03-28T22:23:00.551Z,1.70
2023-03-28T22:25:35.726Z,1.80
2023-03-28T22:28:05.758Z,2.00
2023-03-28T22:30:36.120Z,2.05
2023-03-28T22:33:05.662Z,1.85
2023-03-28T22:35:34.545Z,2.10
2023-03-28T22:38:03.685Z,1.77
2023-03-28T22:40:32.412Z,1.80
2023-03-28T22:43:00.981Z,1.77
2023-03-28T22:45:29.607Z,1.77
2023-03-28T22:48:00.209Z,1.80
2023-03-28T22:50:29.062Z,1.70
2023-03-28T22:52:57.997Z,1.90
2023-03-28T22:55:26.602Z,1.80
2023-03-28T22:57:55.081Z,1.90
2023-03-28T23:00:23.794Z,1.70
2023-03-28T23:02:52.879Z,1.63
2023-03-28T23:05:22.806Z,1.70
2023-03-28T23:07:52.864Z,2.00
2023-03-28T23:10:21.364Z,1.77
2023-03-28T23:12:49.935Z,1.60
2023-03-28T23:15:18.594Z,1.70
2023-03-28T23:17:47.528Z,1.83
2023-03-28T23:20:17.071Z,1.90
2023-03-28T23:22:48.991Z,1.70
2023-03-28T23:25:19.396Z,1.80
2023-03-28T23:27:47.998Z,2.13
2023-03-28T23:30:17.423Z,1.67
2023-03-28T23:32:46.108Z,1.80
2023-03-28T23:35:14.614Z,1.77
2023-03-28T23:37:42.976Z,1.70
2023-03-28T23:40:15.509Z,1.98
2023-03-28T23:42:45.256Z,1.75
2023-03-28T23:45:15.569Z,1.70
2023-03-28T23:47:45.044Z,1.88
2023-03-28T23:50:14.331Z,1.90
2023-03-28T23:52:42.885Z,2.05
2023-03-28T23:55:11.399Z,1.90
2023-03-28T23:57:41.598Z,1.63
